createdAt,value
2018-04-17T00:00:36.760Z,11.20
2018-04-17T00:03:06.673Z,10.07
2018-04-17T00:05:35.584Z,10.70
2018-04-17T00:08:04.015Z,11.20
2018-04-17T00:10:32.524Z,8.73
2018-04-17T00:13:00.820Z,9.20
2018-04-17T00:15:29.165Z,9.20
2018-04-17T00:17:57.523Z,9.87
2018-04-17T00:20:25.901Z,10.73
2018-04-17T00:22:54.211Z,9.60
2018-04-17T00:25:22.522Z,9.00
2018-04-17T00:27:50.867Z,9.77
2018-04-17T00:30:19.418Z,9.53
2018-04-17T00:32:48.730Z,9.30
2018-04-17T00:35:17.474Z,8.60
2018-04-17T00:37:46.886Z,7.73
2018-04-17T00:40:15.493Z,10.90
2018-04-17T00:42:44.517Z,8.80
2018-04-17T00:45:13.231Z,10.47
2018-04-17T00:47:41.995Z,11.20
2018-04-17T00:50:11.048Z,10.27
2018-04-17T00:52:39.916Z,10.17
2018-04-17T00:55:09.213Z,9.00
2018-04-17T00:57:41.014Z,10.07
2018-04-17T01:00:10.595Z,9.20
2018-04-17T01:02:39.831Z,9.90
2018-04-17T01:05:09.064Z,10.97
2018-04-17T01:07:38.454Z,9.50
2018-04-17T01:10:07.731Z,12.50
2018-04-17T01:12:37.158Z,11.73
2018-04-17T01:15:06.764Z,10.33
2018-04-17T01:17:35.952Z,11.98
2018-04-17T01:20:05.349Z,11.80
2018-04-17T01:22:36.089Z,10.80
2018-04-17T01:25:05.893Z,8.80
2018-04-17T01:27:35.916Z,9.20
2018-04-17T01:30:05.123Z,8.00
2018-04-17T01:32:34.570Z,8.40
2018-04-17T01:35:03.062Z,7.93
2018-04-17T01:37:32.049Z,8.30
2018-04-17T01:40:00.973Z,8.10
2018-04-17T01:42:29.323Z,8.10
2018-04-17T01:44:57.816Z,7.60
2018-04-17T01:47:26.192Z,7.70
2018-04-17T01:49:54.522Z,7.40
2018-04-17T01:52:22.993Z,8.00
2018-04-17T01:54:51.438Z,8.57
2018-04-17T01:57:19.775Z,7.33
2018-04-17T01:59:48.355Z,8.27
2018-04-17T02:02:16.842Z,7.60
2018-04-17T02:04:45.433Z,7.60
2018-04-17T02:07:14.127Z,8.23
2018-04-17T02:09:43.029Z,7.10
2018-04-17T02:12:11.916Z,8.40
2018-04-17T02:14:41.414Z,8.33
2018-04-17T02:17:10.646Z,8.63
2018-04-17T02:19:40.019Z,8.50
2018-04-17T02:22:09.826Z,7.47
2018-04-17T02:24:38.937Z,8.30
2018-04-17T02:27:08.274Z,8.60
2018-04-17T02:29:37.792Z,7.60
2018-04-17T02:32:07.496Z,6.87
2018-04-17T02:34:36.382Z,7.30
2018-04-17T02:37:05.565Z,8.73
2018-04-17T02:39:34.291Z,7.13
2018-04-17T02:42:03.512Z,7.20
2018-04-17T02:44:32.071Z,8.07
2018-04-17T02:47:00.646Z,7.83
2018-04-17T02:49:29.168Z,7.90
2018-04-17T02:51:57.509Z,8.07
2018-04-17T02:54:25.900Z,8.23
2018-04-17T02:56:54.253Z,8.40
2018-04-17T02:59:22.905Z,7.80
2018-04-17T03:01:52.156Z,10.27
2018-04-17T03:04:20.613Z,7.60
2018-04-17T03:06:49.066Z,8.33
2018-04-17T03:09:18.201Z,9.10
2018-04-17T03:11:46.822Z,8.67
2018-04-17T03:14:15.508Z,9.63
2018-04-17T03:16:44.286Z,8.73
2018-04-17T03:19:12.974Z,9.90
2018-04-17T03:21:42.919Z,8.97
2018-04-17T03:24:12.034Z,9.27
2018-04-17T03:26:41.250Z,9.00
2018-04-17T03:29:10.244Z,8.30
2018-04-17T03:31:39.783Z,8.90
2018-04-17T03:34:09.555Z,9.33
2018-04-17T03:36:39.487Z,8.40
2018-04-17T03:39:09.193Z,9.20
2018-04-17T03:41:38.223Z,9.00
2018-04-17T03:44:07.270Z,9.27
2018-04-17T03:46:36.469Z,9.63
2018-04-17T03:49:05.629Z,9.00
2018-04-17T03:51:34.426Z,9.40
2018-04-17T03:54:02.995Z,7.97
2018-04-17T03:56:31.648Z,10.33
2018-04-17T03:59:01.067Z,9.00
2018-04-17T04:01:29.592Z,9.47
2018-04-17T04:03:58.762Z,10.27
2018-04-17T04:06:27.213Z,10.83
2018-04-17T04:08:56.340Z,9.87
2018-04-17T04:11:24.642Z,9.40
2018-04-17T04:13:53.015Z,9.23
2018-04-17T04:16:33.385Z,9.00
2018-04-17T04:19:14.636Z,8.83
2018-04-17T04:24:57.937Z,10.20
2018-04-17T04:27:26.316Z,9.27
2018-04-17T04:29:54.608Z,9.57
2018-04-17T04:32:23.089Z,9.83
2018-04-17T04:34:51.426Z,8.50
2018-04-17T04:37:20.575Z,9.43
2018-04-17T04:39:49.029Z,12.40
2018-04-17T04:42:18.311Z,10.33
2018-04-17T04:44:47.593Z,11.63
2018-04-17T04:47:16.205Z,10.07
2018-04-17T04:49:45.136Z,10.50
2018-04-17T04:52:15.213Z,10.27
2018-04-17T04:54:43.703Z,10.47
2018-04-17T04:57:12.227Z,12.00
2018-04-17T04:59:40.876Z,12.43
2018-04-17T05:02:09.711Z,12.10
2018-04-17T05:04:38.804Z,12.03
2018-04-17T05:07:08.607Z,10.57
2018-04-17T05:09:38.303Z,10.83
2018-04-17T05:12:07.285Z,12.20
2018-04-17T05:14:36.464Z,11.13
2018-04-17T05:17:05.522Z,10.70
2018-04-17T05:19:35.481Z,17.67
2018-04-17T05:22:04.883Z,15.90
2018-04-17T05:24:33.232Z,14.90
2018-04-17T05:27:01.763Z,15.07
2018-04-17T05:29:30.130Z,15.07
2018-04-17T05:31:59.217Z,13.33
2018-04-17T05:34:27.531Z,14.57
2018-04-17T05:36:55.985Z,16.53
2018-04-17T05:39:25.153Z,17.90
2018-04-17T05:41:53.462Z,20.73
2018-04-17T05:44:21.785Z,19.33
2018-04-17T05:46:50.359Z,18.23
2018-04-17T05:49:19.553Z,18.60
2018-04-17T05:51:48.029Z,19.30
2018-04-17T05:54:16.489Z,19.50
2018-04-17T05:56:45.015Z,19.80
2018-04-17T05:59:14.439Z,29.60
2018-04-17T06:01:43.052Z,21.90
2018-04-17T06:04:11.575Z,20.77
2018-04-17T06:06:40.257Z,20.98
2018-04-17T06:09:09.256Z,19.33
2018-04-17T06:11:37.954Z,17.33
2018-04-17T06:14:06.604Z,18.77
2018-04-17T06:16:36.636Z,20.37
2018-04-17T06:19:05.565Z,18.67
2018-04-17T06:21:34.513Z,18.03
2018-04-17T06:24:03.140Z,17.50
2018-04-17T06:26:31.441Z,18.50
2018-04-17T06:29:00.530Z,18.67
2018-04-17T06:31:28.856Z,19.30
2018-04-17T06:33:57.184Z,20.40
2018-04-17T06:36:26.358Z,21.73
2018-04-17T06:38:54.711Z,21.00
2018-04-17T06:41:23.937Z,20.13
2018-04-17T06:43:53.006Z,20.40
2018-04-17T06:46:22.156Z,21.60
2018-04-17T06:48:50.560Z,21.37
2018-04-17T06:51:19.069Z,24.40
2018-04-17T06:53:47.752Z,25.07
2018-04-17T06:56:16.405Z,22.80
2018-04-17T06:58:44.882Z,22.37
2018-04-17T07:01:15.687Z,20.00
2018-04-17T07:03:44.453Z,20.30
2018-04-17T07:06:13.150Z,19.37
2018-04-17T07:08:42.290Z,19.70
2018-04-17T07:11:11.041Z,20.57
2018-04-17T07:13:40.482Z,20.00
2018-04-17T07:16:09.979Z,19.43
2018-04-17T07:18:38.659Z,18.23
2018-04-17T07:21:07.940Z,19.30
2018-04-17T07:23:37.214Z,15.80
2018-04-17T07:26:06.763Z,13.57
2018-04-17T07:28:35.790Z,14.68
2018-04-17T07:31:04.363Z,12.67
2018-04-17T07:33:32.904Z,13.17
2018-04-17T07:36:01.251Z,11.60
2018-04-17T07:38:29.590Z,6.57
2018-04-17T07:40:57.914Z,6.82
2018-04-17T07:43:27.114Z,4.50
2018-04-17T07:45:55.546Z,5.67
2018-04-17T07:48:35.956Z,9.20
2018-04-17T07:51:04.574Z,8.90
2018-04-17T07:53:33.020Z,7.90
2018-04-17T07:56:01.354Z,9.00
2018-04-17T07:58:30.444Z,4.43
2018-04-17T08:00:58.807Z,5.67
2018-04-17T08:03:27.955Z,5.30
2018-04-17T08:05:56.302Z,5.70
2018-04-17T08:08:25.407Z,5.83
2018-04-17T08:10:53.750Z,5.20
2018-04-17T08:13:22.866Z,6.20
2018-04-17T08:15:51.295Z,6.50
2018-04-17T08:18:19.896Z,5.77
2018-04-17T08:20:49.133Z,5.20
2018-04-17T08:23:17.799Z,5.17
2018-04-17T08:25:46.355Z,5.00
2018-04-17T08:28:15.943Z,5.57
2018-04-17T08:30:45.353Z,4.90
2018-04-17T08:33:13.999Z,5.13
2018-04-17T08:35:42.521Z,5.20
2018-04-17T08:38:11.227Z,5.43
2018-04-17T08:40:40.061Z,5.75
2018-04-17T08:43:08.536Z,4.83
2018-04-17T08:45:37.221Z,4.90
2018-04-17T08:48:05.861Z,5.33
2018-04-17T08:50:35.308Z,5.77
2018-04-17T08:53:04.580Z,5.60
2018-04-17T08:55:33.134Z,4.87
2018-04-17T08:58:02.323Z,4.17
2018-04-17T09:00:30.675Z,4.13
2018-04-17T09:02:59.790Z,3.60
2018-04-17T09:05:28.985Z,3.60
2018-04-17T09:07:58.073Z,4.23
2018-04-17T09:10:26.461Z,4.10
2018-04-17T09:12:54.792Z,3.83
2018-04-17T09:15:23.131Z,3.40
2018-04-17T09:17:52.289Z,2.70
2018-04-17T09:20:20.724Z,3.80
2018-04-17T09:22:49.196Z,3.40
2018-04-17T09:25:18.100Z,4.80
2018-04-17T09:27:47.497Z,2.90
2018-04-17T09:30:16.017Z,3.80
2018-04-17T09:32:44.653Z,3.27
2018-04-17T09:35:13.551Z,3.37
2018-04-17T09:37:43.034Z,2.97
2018-04-17T09:40:12.459Z,3.63
2018-04-17T09:42:42.295Z,4.18
2018-04-17T09:45:11.799Z,3.57
2018-04-17T09:47:41.119Z,3.67
2018-04-17T09:50:09.990Z,3.77
2018-04-17T09:52:39.533Z,3.50
2018-04-17T09:55:08.170Z,3.20
2018-04-17T09:57:36.911Z,2.53
2018-04-17T10:00:07.102Z,2.80
2018-04-17T10:02:35.840Z,3.13
2018-04-17T10:05:05.551Z,3.90
2018-04-17T10:07:34.154Z,3.80
2018-04-17T10:10:02.642Z,4.30
2018-04-17T10:12:31.814Z,3.67
2018-04-17T10:15:01.114Z,3.90
2018-04-17T10:17:29.618Z,3.07
2018-04-17T10:19:57.968Z,3.43
2018-04-17T10:22:26.325Z,3.30
2018-04-17T10:24:54.833Z,3.30
2018-04-17T10:27:23.173Z,3.20
2018-04-17T10:29:51.613Z,3.13
2018-04-17T10:32:20.991Z,3.13
2018-04-17T10:34:49.768Z,3.63
2018-04-17T10:37:18.186Z,3.73
2018-04-17T10:39:46.704Z,3.10
2018-04-17T10:42:15.208Z,3.33
2018-04-17T10:44:44.488Z,2.90
2018-04-17T10:47:13.238Z,3.50
2018-04-17T10:49:42.018Z,3.20
2018-04-17T10:52:10.889Z,3.80
2018-04-17T10:54:40.879Z,3.70
2018-04-17T10:57:09.847Z,3.37
2018-04-17T10:59:39.573Z,2.77
2018-04-17T11:02:08.643Z,3.00
2018-04-17T11:04:37.741Z,3.07
2018-04-17T11:07:06.752Z,2.47
2018-04-17T11:09:36.442Z,3.10
2018-04-17T11:12:05.801Z,3.10
2018-04-17T11:14:35.540Z,3.63
2018-04-17T11:17:03.978Z,3.70
2018-04-17T11:19:32.583Z,3.10
2018-04-17T11:22:01.161Z,2.80
2018-04-17T11:24:29.556Z,2.50
2018-04-17T11:26:57.912Z,2.63
2018-04-17T11:29:26.246Z,2.70
2018-04-17T11:31:54.564Z,4.60
2018-04-17T11:34:25.613Z,3.20
2018-04-17T11:36:54.041Z,2.63
2018-04-17T11:39:22.418Z,3.27
2018-04-17T11:41:50.741Z,3.73
2018-04-17T11:44:20.996Z,3.23
2018-04-17T11:46:49.596Z,2.80
2018-04-17T11:49:18.928Z,3.00
2018-04-17T11:51:47.362Z,3.60
2018-04-17T11:54:16.107Z,3.37
2018-04-17T11:56:45.809Z,2.53
2018-04-17T11:59:15.294Z,3.13
2018-04-17T12:01:43.926Z,3.40
2018-04-17T12:04:12.553Z,3.13
2018-04-17T12:06:41.089Z,3.77
2018-04-17T12:09:09.799Z,3.67
2018-04-17T12:11:38.836Z,4.03
2018-04-17T12:14:08.446Z,3.57
2018-04-17T12:16:38.328Z,3.90
2018-04-17T12:19:07.357Z,3.97
2018-04-17T12:21:37.211Z,3.90
2018-04-17T12:24:07.362Z,4.37
2018-04-17T12:26:36.506Z,4.37
2018-04-17T12:29:07.073Z,3.70
2018-04-17T12:31:35.709Z,5.00
2018-04-17T12:34:04.294Z,4.40
2018-04-17T12:36:33.577Z,3.70
2018-04-17T12:39:02.900Z,4.60
2018-04-17T12:41:32.022Z,3.73
2018-04-17T12:44:01.122Z,4.17
2018-04-17T12:46:30.256Z,4.37
2018-04-17T12:48:58.946Z,4.87
2018-04-17T12:51:27.599Z,4.30
2018-04-17T12:53:55.989Z,4.70
2018-04-17T12:56:24.425Z,4.60
2018-04-17T12:58:52.807Z,5.07
2018-04-17T13:01:21.943Z,4.70
2018-04-17T13:03:50.379Z,4.17
2018-04-17T13:06:18.722Z,3.43
2018-04-17T13:08:47.433Z,3.37
2018-04-17T13:11:15.838Z,3.63
2018-04-17T13:13:44.400Z,3.10
2018-04-17T13:16:13.452Z,4.73
2018-04-17T13:18:42.651Z,4.20
2018-04-17T13:21:11.352Z,3.67
2018-04-17T13:23:40.205Z,2.80
2018-04-17T13:26:08.854Z,3.30
2018-04-17T13:28:38.495Z,3.33
2018-04-17T13:31:08.106Z,2.93
2018-04-17T13:33:36.762Z,2.80
2018-04-17T13:36:06.396Z,4.93
2018-04-17T13:38:36.442Z,3.23
2018-04-17T13:41:05.388Z,3.50
2018-04-17T13:43:34.172Z,3.70
2018-04-17T13:46:02.903Z,3.17
2018-04-17T13:48:31.753Z,3.60
2018-04-17T13:51:00.218Z,3.03
2018-04-17T13:53:28.579Z,4.77
2018-04-17T13:55:56.939Z,4.10
2018-04-17T13:58:25.311Z,4.17
2018-04-17T14:00:53.931Z,4.40
2018-04-17T14:03:22.419Z,3.50
2018-04-17T14:05:51.896Z,4.00
2018-04-17T14:08:20.833Z,4.30
2018-04-17T14:10:49.192Z,3.80
2018-04-17T14:13:18.475Z,3.70
2018-04-17T14:15:46.914Z,3.60
2018-04-17T14:18:16.279Z,3.20
2018-04-17T14:20:44.927Z,3.00
2018-04-17T14:23:13.533Z,3.73
2018-04-17T14:25:42.222Z,3.90
2018-04-17T14:28:11.408Z,4.23
2018-04-17T14:30:41.453Z,3.80
2018-04-17T14:33:11.265Z,2.80
2018-04-17T14:35:39.949Z,3.60
2018-04-17T14:38:08.400Z,3.33
2018-04-17T14:40:37.453Z,3.27
2018-04-17T14:43:08.506Z,2.87
2018-04-17T14:45:38.572Z,3.70
2018-04-17T14:48:08.098Z,4.23
2018-04-17T14:50:37.623Z,4.30
2018-04-17T14:53:08.872Z,3.13
2018-04-17T14:55:39.953Z,2.70
2018-04-17T14:58:10.047Z,3.90
2018-04-17T15:00:42.978Z,4.47
2018-04-17T15:03:13.526Z,3.60
2018-04-17T15:05:42.232Z,3.87
2018-04-17T15:08:12.424Z,4.03
2018-04-17T15:10:43.019Z,4.17
2018-04-17T15:13:13.045Z,3.47
2018-04-17T15:15:43.052Z,3.60
2018-04-17T15:18:13.120Z,4.50
2018-04-17T15:20:44.806Z,5.13
2018-04-17T15:23:14.192Z,4.63
2018-04-17T15:25:45.115Z,4.40
2018-04-17T15:28:14.437Z,4.53
2018-04-17T15:30:44.215Z,4.00
2018-04-17T15:33:15.235Z,4.70
2018-04-17T15:35:45.567Z,4.10
2018-04-17T15:38:15.385Z,3.73
2018-04-17T15:40:45.224Z,4.00
2018-04-17T15:43:15.670Z,5.53
2018-04-17T15:45:45.104Z,4.50
2018-04-17T15:48:14.646Z,4.43
2018-04-17T15:50:44.517Z,4.00
2018-04-17T15:53:13.810Z,4.10
2018-04-17T15:55:43.781Z,4.00
2018-04-17T15:58:13.672Z,4.73
2018-04-17T16:00:43.641Z,3.87
2018-04-17T16:03:13.328Z,3.93
2018-04-17T16:05:43.860Z,3.30
2018-04-17T16:08:14.099Z,3.30
2018-04-17T16:10:43.179Z,3.73
2018-04-17T16:13:13.277Z,4.57
2018-04-17T16:15:44.972Z,4.47
2018-04-17T16:18:14.235Z,3.73
2018-04-17T16:20:43.348Z,4.23
2018-04-17T16:23:13.733Z,4.17
2018-04-17T16:25:42.777Z,4.10
2018-04-17T16:28:12.681Z,4.50
2018-04-17T16:30:42.254Z,4.17
2018-04-17T16:33:12.000Z,4.03
2018-04-17T16:35:41.484Z,3.53
2018-04-17T16:38:11.220Z,4.55
2018-04-17T16:40:41.034Z,3.87
2018-04-17T16:43:12.670Z,4.23
2018-04-17T16:45:42.329Z,3.43
2018-04-17T16:48:12.713Z,4.20
2018-04-17T16:50:42.380Z,3.53
2018-04-17T16:53:11.792Z,3.57
2018-04-17T16:55:41.441Z,3.20
2018-04-17T16:58:10.629Z,3.70
2018-04-17T17:00:40.137Z,3.53
2018-04-17T17:03:09.991Z,3.37
2018-04-17T17:05:39.891Z,4.00
2018-04-17T17:08:10.183Z,3.90
2018-04-17T17:10:40.432Z,4.80
2018-04-17T17:13:10.319Z,4.53
2018-04-17T17:15:39.724Z,4.13
2018-04-17T17:18:09.460Z,3.90
2018-04-17T17:20:39.738Z,4.60
2018-04-17T17:23:09.774Z,3.90
2018-04-17T17:25:39.689Z,4.03
2018-04-17T17:28:10.329Z,6.30
2018-04-17T17:30:39.929Z,5.23
2018-04-17T17:33:09.482Z,5.07
2018-04-17T17:35:39.627Z,4.70
2018-04-17T17:38:09.823Z,5.97
2018-04-17T17:40:40.502Z,8.10
2018-04-17T17:43:11.088Z,8.70
2018-04-17T17:45:40.612Z,6.70
2018-04-17T17:48:10.508Z,4.47
2018-04-17T17:50:40.065Z,6.73
2018-04-17T17:53:10.504Z,5.80
2018-04-17T17:55:41.558Z,4.93
2018-04-17T17:58:11.180Z,4.17
2018-04-17T18:00:42.640Z,5.30
2018-04-17T18:03:13.735Z,4.70
2018-04-17T18:05:42.809Z,5.10
2018-04-17T18:08:12.048Z,4.27
2018-04-17T18:10:41.709Z,6.20
2018-04-17T18:13:13.341Z,5.00
2018-04-17T18:15:43.303Z,5.80
2018-04-17T18:18:12.153Z,5.20
2018-04-17T18:20:41.192Z,4.70
2018-04-17T18:23:11.947Z,5.47
2018-04-17T18:25:41.517Z,5.20
2018-04-17T18:28:11.173Z,4.77
2018-04-17T18:30:41.714Z,4.50
2018-04-17T18:33:11.790Z,4.60
2018-04-17T18:35:41.306Z,4.60
2018-04-17T18:38:11.205Z,5.00
2018-04-17T18:40:41.704Z,4.70
2018-04-17T18:43:11.094Z,5.30
2018-04-17T18:45:40.890Z,5.50
2018-04-17T18:48:10.618Z,5.00
2018-04-17T18:50:41.140Z,5.40
2018-04-17T18:53:10.698Z,5.60
2018-04-17T18:55:40.986Z,5.67
2018-04-17T18:58:11.061Z,4.97
2018-04-17T19:00:40.593Z,5.67
2018-04-17T19:03:09.186Z,6.07
2018-04-17T19:05:39.385Z,5.80
2018-04-17T19:08:10.301Z,5.57
2018-04-17T19:10:39.666Z,5.40
2018-04-17T19:13:09.609Z,4.90
2018-04-17T19:15:38.972Z,5.77
2018-04-17T19:18:08.787Z,5.97
2018-04-17T19:20:37.729Z,4.73
2018-04-17T19:23:07.701Z,5.77
2018-04-17T19:25:39.631Z,6.17
2018-04-17T19:28:08.865Z,5.20
2018-04-17T19:30:38.128Z,5.40
2018-04-17T19:33:07.220Z,5.40
2018-04-17T19:35:36.766Z,4.73
2018-04-17T19:38:05.699Z,5.43
2018-04-17T19:40:35.561Z,5.60
2018-04-17T19:43:04.201Z,4.70
2018-04-17T19:45:33.272Z,5.37
2018-04-17T19:48:01.864Z,5.10
2018-04-17T19:50:30.271Z,5.37
2018-04-17T19:52:58.570Z,4.80
2018-04-17T19:55:26.875Z,4.50
2018-04-17T19:57:55.209Z,4.93
2018-04-17T20:00:24.289Z,5.40
2018-04-17T20:02:52.952Z,5.80
2018-04-17T20:05:21.282Z,6.37
2018-04-17T20:07:49.665Z,5.60
2018-04-17T20:10:19.293Z,6.20
2018-04-17T20:12:48.322Z,5.70
2018-04-17T20:15:17.085Z,5.43
2018-04-17T20:17:45.449Z,5.80
2018-04-17T20:20:14.040Z,6.50
2018-04-17T20:22:42.791Z,5.57
2018-04-17T20:25:11.788Z,4.93
2018-04-17T20:27:41.680Z,4.90
2018-04-17T20:30:10.653Z,5.60
2018-04-17T20:32:40.651Z,5.60
2018-04-17T20:35:10.869Z,6.40
2018-04-17T20:37:40.189Z,6.00
2018-04-17T20:40:10.321Z,5.93
2018-04-17T20:42:39.439Z,5.87
2018-04-17T20:45:09.024Z,6.60
2018-04-17T20:47:38.237Z,6.03
2018-04-17T20:50:07.548Z,5.67
2018-04-17T20:52:37.849Z,5.70
2018-04-17T20:55:07.665Z,5.93
2018-04-17T20:57:36.984Z,5.53
2018-04-17T21:00:06.185Z,6.30
2018-04-17T21:02:38.215Z,6.20
2018-04-17T21:05:07.654Z,6.60
2018-04-17T21:07:37.167Z,5.53
2018-04-17T21:10:06.268Z,5.93
2018-04-17T21:12:35.516Z,5.57
2018-04-17T21:15:04.044Z,5.90
2018-04-17T21:17:32.847Z,5.67
2018-04-17T21:20:02.270Z,5.87
2018-04-17T21:22:30.597Z,5.47
2018-04-17T21:24:58.928Z,5.80
2018-04-17T21:27:27.437Z,6.00
2018-04-17T21:29:56.621Z,5.70
2018-04-17T21:32:24.957Z,5.33
2018-04-17T21:34:53.390Z,6.05
2018-04-17T21:37:21.880Z,6.47
2018-04-17T21:39:50.720Z,6.60
2018-04-17T21:42:19.786Z,6.33
2018-04-17T21:44:48.094Z,5.80
2018-04-17T21:47:16.725Z,6.10
2018-04-17T21:49:46.265Z,5.40
2018-04-17T21:52:14.865Z,6.33
2018-04-17T21:54:44.515Z,5.77
2018-04-17T21:57:13.322Z,6.37
2018-04-17T21:59:42.261Z,6.53
2018-04-17T22:02:11.840Z,5.97
2018-04-17T22:04:41.531Z,5.60
2018-04-17T22:07:10.835Z,6.87
2018-04-17T22:09:40.012Z,6.33
2018-04-17T22:12:09.276Z,7.20
2018-04-17T22:14:38.879Z,6.40
2018-04-17T22:17:08.490Z,8.33
2018-04-17T22:19:38.312Z,6.27
2018-04-17T22:22:07.763Z,6.77
2018-04-17T22:24:37.099Z,6.50
2018-04-17T22:27:06.399Z,7.20
2018-04-17T22:29:37.057Z,7.27
2018-04-17T22:32:07.822Z,5.37
2018-04-17T22:34:37.502Z,6.17
2018-04-17T22:37:07.640Z,6.07
2018-04-17T22:39:37.761Z,6.53
2018-04-17T22:42:07.816Z,7.10
2018-04-17T22:44:37.125Z,7.27
2018-04-17T22:47:06.604Z,7.93
2018-04-17T22:49:37.105Z,8.35
2018-04-17T22:52:07.422Z,8.00
2018-04-17T22:54:37.646Z,6.80
2018-04-17T22:57:07.241Z,7.93
2018-04-17T22:59:36.423Z,6.60
2018-04-17T23:02:06.480Z,7.17
2018-04-17T23:04:35.517Z,7.10
2018-04-17T23:07:04.481Z,7.63
2018-04-17T23:09:33.181Z,6.87
2018-04-17T23:12:01.953Z,7.00
2018-04-17T23:14:31.401Z,8.40
2018-04-17T23:17:00.810Z,7.23
2018-04-17T23:19:29.305Z,7.60
2018-04-17T23:21:57.633Z,7.30
2018-04-17T23:24:25.964Z,7.53
2018-04-17T23:26:54.295Z,7.67
2018-04-17T23:29:22.601Z,7.27
2018-04-17T23:31:51.727Z,7.60
2018-04-17T23:34:20.043Z,7.77
2018-04-17T23:36:48.361Z,7.27
2018-04-17T23:39:18.606Z,7.60
2018-04-17T23:41:47.419Z,7.80
2018-04-17T23:44:16.160Z,7.50
2018-04-17T23:46:44.939Z,7.10
2018-04-17T23:49:13.814Z,8.00
2018-04-17T23:51:42.798Z,8.10
2018-04-17T23:54:13.577Z,7.57
2018-04-17T23:56:42.679Z,7.22
2018-04-17T23:59:12.107Z,7.73
